sensor_id;sensor_type;location;lat;lon;timestamp;temperature;humidity
72320;SHT30;60269;52.502;16.732;2023-05-24T00:00:19;13.61;91.39
72320;SHT30;60269;52.502;16.732;2023-05-24T00:04:13;13.35;92.38
72320;SHT30;60269;52.502;16.732;2023-05-24T00:07:46;13.11;92.46
72320;SHT30;60269;52.502;16.732;2023-05-24T00:11:18;12.94;92.47
72320;SHT30;60269;52.502;16.732;2023-05-24T00:14:51;12.80;92.85
72320;SHT30;60269;52.502;16.732;2023-05-24T00:18:23;12.72;93.02
72320;SHT30;60269;52.502;16.732;2023-05-24T00:21:55;12.66;93.07
72320;SHT30;60269;52.502;16.732;2023-05-24T00:25:27;12.56;93.17
72320;SHT30;60269;52.502;16.732;2023-05-24T00:28:59;12.50;93.11
72320;SHT30;60269;52.502;16.732;2023-05-24T00:32:31;12.50;93.09
72320;SHT30;60269;52.502;16.732;2023-05-24T00:36:03;12.40;93.20
72320;SHT30;60269;52.502;16.732;2023-05-24T00:39:35;12.43;92.96
72320;SHT30;60269;52.502;16.732;2023-05-24T00:43:07;12.43;92.97
72320;SHT30;60269;52.502;16.732;2023-05-24T00:46:39;12.50;92.86
72320;SHT30;60269;52.502;16.732;2023-05-24T00:50:13;12.50;92.86
72320;SHT30;60269;52.502;16.732;2023-05-24T00:53:48;12.55;92.55
72320;SHT30;60269;52.502;16.732;2023-05-24T00:57:20;12.53;92.57
72320;SHT30;60269;52.502;16.732;2023-05-24T01:00:59;12.53;92.63
72320;SHT30;60269;52.502;16.732;2023-05-24T01:04:32;12.57;92.62
72320;SHT30;60269;52.502;16.732;2023-05-24T01:08:22;12.60;92.61
72320;SHT30;60269;52.502;16.732;2023-05-24T01:16:09;12.57;92.44
72320;SHT30;60269;52.502;16.732;2023-05-24T01:27:32;12.52;92.33
72320;SHT30;60269;52.502;16.732;2023-05-24T01:31:05;12.55;92.56
72320;SHT30;60269;52.502;16.732;2023-05-24T01:34:37;12.56;92.53
72320;SHT30;60269;52.502;16.732;2023-05-24T01:38:09;12.55;92.59
72320;SHT30;60269;52.502;16.732;2023-05-24T01:45:43;12.60;92.20
72320;SHT30;60269;52.502;16.732;2023-05-24T01:49:25;12.61;92.15
72320;SHT30;60269;52.502;16.732;2023-05-24T01:53:03;12.63;92.23
72320;SHT30;60269;52.502;16.732;2023-05-24T01:56:38;12.61;92.30
72320;SHT30;60269;52.502;16.732;2023-05-24T02:00:14;12.55;92.05
72320;SHT30;60269;52.502;16.732;2023-05-24T02:03:49;12.55;92.20
72320;SHT30;60269;52.502;16.732;2023-05-24T02:07:21;12.52;92.18
72320;SHT30;60269;52.502;16.732;2023-05-24T02:10:53;12.47;92.05
72320;SHT30;60269;52.502;16.732;2023-05-24T02:14:25;12.47;91.94
72320;SHT30;60269;52.502;16.732;2023-05-24T02:17:58;12.49;91.77
72320;SHT30;60269;52.502;16.732;2023-05-24T02:21:32;12.52;91.57
72320;SHT30;60269;52.502;16.732;2023-05-24T02:25:06;12.49;91.45
72320;SHT30;60269;52.502;16.732;2023-05-24T02:28:39;12.42;91.72
72320;SHT30;60269;52.502;16.732;2023-05-24T02:32:11;12.40;91.58
72320;SHT30;60269;52.502;16.732;2023-05-24T02:35:43;12.43;91.63
72320;SHT30;60269;52.502;16.732;2023-05-24T02:39:17;12.49;91.60
72320;SHT30;60269;52.502;16.732;2023-05-24T02:42:49;12.47;91.56
72320;SHT30;60269;52.502;16.732;2023-05-24T02:46:21;12.45;91.72
72320;SHT30;60269;52.502;16.732;2023-05-24T02:49:53;12.39;92.25
72320;SHT30;60269;52.502;16.732;2023-05-24T02:53:26;12.33;92.58
72320;SHT30;60269;52.502;16.732;2023-05-24T02:56:58;12.11;93.29
72320;SHT30;60269;52.502;16.732;2023-05-24T03:00:30;12.02;93.91
72320;SHT30;60269;52.502;16.732;2023-05-24T03:04:02;11.91;94.27
72320;SHT30;60269;52.502;16.732;2023-05-24T03:07:34;11.81;94.28
72320;SHT30;60269;52.502;16.732;2023-05-24T03:11:07;11.71;94.52
72320;SHT30;60269;52.502;16.732;2023-05-24T03:14:39;11.71;94.58
72320;SHT30;60269;52.502;16.732;2023-05-24T03:18:11;11.63;94.37
72320;SHT30;60269;52.502;16.732;2023-05-24T03:21:43;11.22;93.91
72320;SHT30;60269;52.502;16.732;2023-05-24T03:25:15;11.06;94.57
72320;SHT30;60269;52.502;16.732;2023-05-24T03:28:47;10.96;94.68
72320;SHT30;60269;52.502;16.732;2023-05-24T03:32:21;10.83;94.86
72320;SHT30;60269;52.502;16.732;2023-05-24T03:35:53;10.65;95.26
72320;SHT30;60269;52.502;16.732;2023-05-24T03:39:25;10.62;95.32
72320;SHT30;60269;52.502;16.732;2023-05-24T03:42:57;10.50;95.53
72320;SHT30;60269;52.502;16.732;2023-05-24T03:46:29;10.45;95.72
72320;SHT30;60269;52.502;16.732;2023-05-24T03:50:01;10.34;95.86
72320;SHT30;60269;52.502;16.732;2023-05-24T03:53:33;10.25;96.15
72320;SHT30;60269;52.502;16.732;2023-05-24T03:57:06;10.24;96.07
72320;SHT30;60269;52.502;16.732;2023-05-24T04:00:38;10.21;96.20
72320;SHT30;60269;52.502;16.732;2023-05-24T04:04:10;10.14;96.51
72320;SHT30;60269;52.502;16.732;2023-05-24T04:07:42;10.05;96.64
72320;SHT30;60269;52.502;16.732;2023-05-24T04:11:15;10.02;96.90
72320;SHT30;60269;52.502;16.732;2023-05-24T04:14:48;9.99;97.05
72320;SHT30;60269;52.502;16.732;2023-05-24T04:18:20;9.97;97.13
72320;SHT30;60269;52.502;16.732;2023-05-24T04:21:52;10.02;97.10
72320;SHT30;60269;52.502;16.732;2023-05-24T04:25:24;9.95;97.14
72320;SHT30;60269;52.502;16.732;2023-05-24T04:28:57;9.95;96.87
72320;SHT30;60269;52.502;16.732;2023-05-24T04:32:31;9.92;97.10
72320;SHT30;60269;52.502;16.732;2023-05-24T04:36:04;9.96;97.16
72320;SHT30;60269;52.502;16.732;2023-05-24T04:39:36;10.00;96.92
72320;SHT30;60269;52.502;16.732;2023-05-24T04:43:08;10.03;96.61
72320;SHT30;60269;52.502;16.732;2023-05-24T04:46:41;10.05;96.56
72320;SHT30;60269;52.502;16.732;2023-05-24T04:50:13;10.13;96.39
72320;SHT30;60269;52.502;16.732;2023-05-24T04:53:45;10.12;95.81
72320;SHT30;60269;52.502;16.732;2023-05-24T04:57:18;10.10;95.78
72320;SHT30;60269;52.502;16.732;2023-05-24T05:00:50;10.21;95.57
72320;SHT30;60269;52.502;16.732;2023-05-24T05:04:22;10.27;95.17
72320;SHT30;60269;52.502;16.732;2023-05-24T05:07:54;10.40;94.46
72320;SHT30;60269;52.502;16.732;2023-05-24T05:11:26;10.40;94.03
72320;SHT30;60269;52.502;16.732;2023-05-24T05:14:58;10.51;94.01
72320;SHT30;60269;52.502;16.732;2023-05-24T05:18:31;10.69;92.77
72320;SHT30;60269;52.502;16.732;2023-05-24T05:22:04;10.71;92.34
72320;SHT30;60269;52.502;16.732;2023-05-24T05:25:36;10.78;91.95
72320;SHT30;60269;52.502;16.732;2023-05-24T05:29:08;10.88;91.55
72320;SHT30;60269;52.502;16.732;2023-05-24T05:32:40;10.85;91.28
72320;SHT30;60269;52.502;16.732;2023-05-24T05:36:12;10.93;90.69
72320;SHT30;60269;52.502;16.732;2023-05-24T05:39:44;11.18;89.82
72320;SHT30;60269;52.502;16.732;2023-05-24T05:43:17;11.09;89.53
72320;SHT30;60269;52.502;16.732;2023-05-24T05:46:48;11.16;89.62
72320;SHT30;60269;52.502;16.732;2023-05-24T05:50:21;11.20;89.03
72320;SHT30;60269;52.502;16.732;2023-05-24T05:53:54;11.12;89.30
72320;SHT30;60269;52.502;16.732;2023-05-24T05:57:26;11.09;89.48
72320;SHT30;60269;52.502;16.732;2023-05-24T06:00:58;11.09;89.77
72320;SHT30;60269;52.502;16.732;2023-05-24T06:04:30;11.12;89.04
72320;SHT30;60269;52.502;16.732;2023-05-24T06:08:02;10.93;90.46
72320;SHT30;60269;52.502;16.732;2023-05-24T06:11:34;11.05;90.00
72320;SHT30;60269;52.502;16.732;2023-05-24T06:15:07;11.10;89.84
72320;SHT30;60269;52.502;16.732;2023-05-24T06:18:39;11.13;89.71
72320;SHT30;60269;52.502;16.732;2023-05-24T06:22:24;11.36;89.32
72320;SHT30;60269;52.502;16.732;2023-05-24T06:25:59;11.19;89.29
72320;SHT30;60269;52.502;16.732;2023-05-24T06:29:32;11.19;88.64
72320;SHT30;60269;52.502;16.732;2023-05-24T06:33:04;11.30;88.38
72320;SHT30;60269;52.502;16.732;2023-05-24T06:36:36;11.29;88.93
72320;SHT30;60269;52.502;16.732;2023-05-24T06:40:13;11.34;88.98
72320;SHT30;60269;52.502;16.732;2023-05-24T06:43:45;11.16;89.63
72320;SHT30;60269;52.502;16.732;2023-05-24T06:47:17;11.10;89.71
72320;SHT30;60269;52.502;16.732;2023-05-24T06:50:49;11.18;89.58
72320;SHT30;60269;52.502;16.732;2023-05-24T06:54:21;11.39;89.01
72320;SHT30;60269;52.502;16.732;2023-05-24T06:57:54;11.49;88.66
72320;SHT30;60269;52.502;16.732;2023-05-24T07:01:27;11.39;89.07
72320;SHT30;60269;52.502;16.732;2023-05-24T07:05:00;11.57;88.38
72320;SHT30;60269;52.502;16.732;2023-05-24T07:08:32;11.53;88.20
72320;SHT30;60269;52.502;16.732;2023-05-24T07:12:04;11.50;88.18
72320;SHT30;60269;52.502;16.732;2023-05-24T07:15:42;11.41;88.43
72320;SHT30;60269;52.502;16.732;2023-05-24T07:19:14;11.50;88.09
72320;SHT30;60269;52.502;16.732;2023-05-24T07:22:46;11.56;88.32
72320;SHT30;60269;52.502;16.732;2023-05-24T07:26:19;11.56;88.65
72320;SHT30;60269;52.502;16.732;2023-05-24T07:29:51;11.67;87.76
72320;SHT30;60269;52.502;16.732;2023-05-24T07:33:26;11.68;87.07
72320;SHT30;60269;52.502;16.732;2023-05-24T07:36:59;11.59;87.73
72320;SHT30;60269;52.502;16.732;2023-05-24T07:40:31;11.71;87.68
72320;SHT30;60269;52.502;16.732;2023-05-24T07:44:03;11.56;87.80
72320;SHT30;60269;52.502;16.732;2023-05-24T07:47:36;11.73;87.81
72320;SHT30;60269;52.502;16.732;2023-05-24T07:51:08;11.64;87.48
72320;SHT30;60269;52.502;16.732;2023-05-24T07:54:40;11.87;86.45
72320;SHT30;60269;52.502;16.732;2023-05-24T07:58:12;11.82;86.67
72320;SHT30;60269;52.502;16.732;2023-05-24T08:01:44;11.98;86.36
72320;SHT30;60269;52.502;16.732;2023-05-24T08:05:18;12.04;85.76
72320;SHT30;60269;52.502;16.732;2023-05-24T08:08:50;12.29;84.90
72320;SHT30;60269;52.502;16.732;2023-05-24T08:12:22;12.35;84.75
72320;SHT30;60269;52.502;16.732;2023-05-24T08:15:56;12.43;84.16
72320;SHT30;60269;52.502;16.732;2023-05-24T08:19:29;12.49;84.37
72320;SHT30;60269;52.502;16.732;2023-05-24T08:23:06;12.88;83.60
72320;SHT30;60269;52.502;16.732;2023-05-24T08:26:38;12.53;84.17
72320;SHT30;60269;52.502;16.732;2023-05-24T08:30:12;12.83;83.82
72320;SHT30;60269;52.502;16.732;2023-05-24T08:33:44;13.00;82.52
72320;SHT30;60269;52.502;16.732;2023-05-24T08:37:21;12.83;82.98
72320;SHT30;60269;52.502;16.732;2023-05-24T08:40:54;12.90;82.72
72320;SHT30;60269;52.502;16.732;2023-05-24T08:44:27;12.91;83.19
72320;SHT30;60269;52.502;16.732;2023-05-24T08:48:01;13.03;82.21
72320;SHT30;60269;52.502;16.732;2023-05-24T08:51:35;12.81;83.26
72320;SHT30;60269;52.502;16.732;2023-05-24T08:55:10;13.07;82.36
72320;SHT30;60269;52.502;16.732;2023-05-24T08:58:44;13.16;83.00
72320;SHT30;60269;52.502;16.732;2023-05-24T09:02:18;13.32;82.33
72320;SHT30;60269;52.502;16.732;2023-05-24T09:05:51;13.21;81.48
72320;SHT30;60269;52.502;16.732;2023-05-24T09:09:26;13.24;81.41
72320;SHT30;60269;52.502;16.732;2023-05-24T09:13:01;13.12;82.10
72320;SHT30;60269;52.502;16.732;2023-05-24T09:16:33;13.07;82.52
72320;SHT30;60269;52.502;16.732;2023-05-24T09:20:07;12.91;82.83
72320;SHT30;60269;52.502;16.732;2023-05-24T09:23:42;12.91;82.58
72320;SHT30;60269;52.502;16.732;2023-05-24T09:27:15;12.84;82.88
72320;SHT30;60269;52.502;16.732;2023-05-24T09:31:01;13.11;82.10
72320;SHT30;60269;52.502;16.732;2023-05-24T09:34:39;12.98;82.95
72320;SHT30;60269;52.502;16.732;2023-05-24T09:38:16;13.15;82.40
72320;SHT30;60269;52.502;16.732;2023-05-24T09:41:52;12.90;82.80
72320;SHT30;60269;52.502;16.732;2023-05-24T09:45:28;12.79;83.14
72320;SHT30;60269;52.502;16.732;2023-05-24T09:49:00;12.95;83.47
72320;SHT30;60269;52.502;16.732;2023-05-24T09:52:38;13.05;82.73
72320;SHT30;60269;52.502;16.732;2023-05-24T09:56:10;12.91;82.59
72320;SHT30;60269;52.502;16.732;2023-05-24T09:59:42;12.76;83.75
72320;SHT30;60269;52.502;16.732;2023-05-24T10:03:16;12.84;83.34
72320;SHT30;60269;52.502;16.732;2023-05-24T10:06:48;12.80;83.48
72320;SHT30;60269;52.502;16.732;2023-05-24T10:10:21;12.84;83.37
72320;SHT30;60269;52.502;16.732;2023-05-24T10:13:53;12.94;82.75
72320;SHT30;60269;52.502;16.732;2023-05-24T10:17:28;12.91;83.25
72320;SHT30;60269;52.502;16.732;2023-05-24T10:21:01;12.61;83.72
72320;SHT30;60269;52.502;16.732;2023-05-24T10:24:43;12.47;84.51
72320;SHT30;60269;52.502;16.732;2023-05-24T10:28:18;12.80;83.97
72320;SHT30;60269;52.502;16.732;2023-05-24T10:31:52;12.95;83.55
72320;SHT30;60269;52.502;16.732;2023-05-24T10:35:24;12.70;83.64
72320;SHT30;60269;52.502;16.732;2023-05-24T10:38:57;12.97;83.17
72320;SHT30;60269;52.502;16.732;2023-05-24T10:42:30;13.24;82.29
72320;SHT30;60269;52.502;16.732;2023-05-24T10:46:03;13.03;83.02
72320;SHT30;60269;52.502;16.732;2023-05-24T10:49:37;13.28;82.45
72320;SHT30;60269;52.502;16.732;2023-05-24T10:53:13;13.19;82.14
72320;SHT30;60269;52.502;16.732;2023-05-24T10:56:47;12.87;82.92
72320;SHT30;60269;52.502;16.732;2023-05-24T11:04:06;13.16;82.09
72320;SHT30;60269;52.502;16.732;2023-05-24T11:07:41;13.31;81.43
72320;SHT30;60269;52.502;16.732;2023-05-24T11:11:14;13.58;81.11
72320;SHT30;60269;52.502;16.732;2023-05-24T11:14:58;13.74;80.41
72320;SHT30;60269;52.502;16.732;2023-05-24T11:18:31;13.89;79.90
72320;SHT30;60269;52.502;16.732;2023-05-24T11:22:07;14.41;78.34
72320;SHT30;60269;52.502;16.732;2023-05-24T11:25:40;14.79;76.68
72320;SHT30;60269;52.502;16.732;2023-05-24T11:29:19;13.93;79.09
72320;SHT30;60269;52.502;16.732;2023-05-24T11:33:14;14.22;78.70
72320;SHT30;60269;52.502;16.732;2023-05-24T11:36:47;15.38;74.87
72320;SHT30;60269;52.502;16.732;2023-05-24T11:40:22;15.19;74.06
72320;SHT30;60269;52.502;16.732;2023-05-24T11:43:55;15.36;73.57
72320;SHT30;60269;52.502;16.732;2023-05-24T11:47:28;15.77;72.51
72320;SHT30;60269;52.502;16.732;2023-05-24T11:51:03;15.64;73.79
72320;SHT30;60269;52.502;16.732;2023-05-24T11:54:36;15.72;73.87
72320;SHT30;60269;52.502;16.732;2023-05-24T12:01:47;15.13;74.99
72320;SHT30;60269;52.502;16.732;2023-05-24T12:05:20;14.62;76.79
72320;SHT30;60269;52.502;16.732;2023-05-24T12:08:53;14.37;77.85
72320;SHT30;60269;52.502;16.732;2023-05-24T12:12:25;14.68;76.93
72320;SHT30;60269;52.502;16.732;2023-05-24T12:16:10;14.28;77.91
72320;SHT30;60269;52.502;16.732;2023-05-24T12:19:42;14.46;77.21
72320;SHT30;60269;52.502;16.732;2023-05-24T12:23:22;14.44;77.78
72320;SHT30;60269;52.502;16.732;2023-05-24T12:27:04;14.71;77.22
72320;SHT30;60269;52.502;16.732;2023-05-24T12:30:41;14.80;76.03
72320;SHT30;60269;52.502;16.732;2023-05-24T12:34:17;14.76;76.59
72320;SHT30;60269;52.502;16.732;2023-05-24T12:37:57;14.14;77.42
72320;SHT30;60269;52.502;16.732;2023-05-24T12:41:31;13.66;79.56
72320;SHT30;60269;52.502;16.732;2023-05-24T12:45:04;13.77;79.65
72320;SHT30;60269;52.502;16.732;2023-05-24T12:48:36;14.20;78.01
72320;SHT30;60269;52.502;16.732;2023-05-24T12:52:08;14.10;78.07
72320;SHT30;60269;52.502;16.732;2023-05-24T12:55:40;13.87;78.96
72320;SHT30;60269;52.502;16.732;2023-05-24T12:59:13;13.58;80.31
72320;SHT30;60269;52.502;16.732;2023-05-24T13:02:45;14.00;79.21
72320;SHT30;60269;52.502;16.732;2023-05-24T13:06:18;14.13;78.68
72320;SHT30;60269;52.502;16.732;2023-05-24T13:09:50;14.10;78.82
72320;SHT30;60269;52.502;16.732;2023-05-24T13:13:22;14.52;77.65
72320;SHT30;60269;52.502;16.732;2023-05-24T13:16:54;14.48;77.57
72320;SHT30;60269;52.502;16.732;2023-05-24T13:20:27;13.96;79.52
72320;SHT30;60269;52.502;16.732;2023-05-24T13:23:59;13.86;79.19
72320;SHT30;60269;52.502;16.732;2023-05-24T13:27:31;13.74;79.70
72320;SHT30;60269;52.502;16.732;2023-05-24T13:31:04;13.56;80.40
72320;SHT30;60269;52.502;16.732;2023-05-24T13:34:37;13.67;80.21
72320;SHT30;60269;52.502;16.732;2023-05-24T13:38:09;13.91;79.25
72320;SHT30;60269;52.502;16.732;2023-05-24T13:41:41;13.83;79.80
72320;SHT30;60269;52.502;16.732;2023-05-24T13:45:14;13.67;80.35
72320;SHT30;60269;52.502;16.732;2023-05-24T13:48:46;13.73;80.56
72320;SHT30;60269;52.502;16.732;2023-05-24T13:52:18;13.77;79.93
72320;SHT30;60269;52.502;16.732;2023-05-24T13:55:51;13.90;79.92
72320;SHT30;60269;52.502;16.732;2023-05-24T13:59:23;13.91;79.86
72320;SHT30;60269;52.502;16.732;2023-05-24T14:02:55;13.99;80.04
72320;SHT30;60269;52.502;16.732;2023-05-24T14:06:29;13.31;81.40
72320;SHT30;60269;52.502;16.732;2023-05-24T14:10:01;13.07;82.76
72320;SHT30;60269;52.502;16.732;2023-05-24T14:13:34;13.26;82.62
72320;SHT30;60269;52.502;16.732;2023-05-24T14:17:09;13.08;82.84
72320;SHT30;60269;52.502;16.732;2023-05-24T14:20:42;13.01;82.97
72320;SHT30;60269;52.502;16.732;2023-05-24T14:24:14;13.21;82.66
72320;SHT30;60269;52.502;16.732;2023-05-24T14:27:46;13.36;82.03
72320;SHT30;60269;52.502;16.732;2023-05-24T14:31:18;12.98;83.12
72320;SHT30;60269;52.502;16.732;2023-05-24T14:34:50;13.44;82.21
72320;SHT30;60269;52.502;16.732;2023-05-24T14:38:25;13.36;82.18
72320;SHT30;60269;52.502;16.732;2023-05-24T14:41:57;13.39;82.22
72320;SHT30;60269;52.502;16.732;2023-05-24T14:45:29;13.69;81.65
72320;SHT30;60269;52.502;16.732;2023-05-24T14:49:02;14.04;80.44
72320;SHT30;60269;52.502;16.732;2023-05-24T14:52:34;13.90;80.55
72320;SHT30;60269;52.502;16.732;2023-05-24T14:56:06;13.90;80.43
72320;SHT30;60269;52.502;16.732;2023-05-24T14:59:42;13.76;80.41
72320;SHT30;60269;52.502;16.732;2023-05-24T15:03:13;13.69;81.22
72320;SHT30;60269;52.502;16.732;2023-05-24T15:06:46;13.58;82.15
72320;SHT30;60269;52.502;16.732;2023-05-24T15:10:18;13.51;82.36
72320;SHT30;60269;52.502;16.732;2023-05-24T15:13:50;13.69;81.75
72320;SHT30;60269;52.502;16.732;2023-05-24T15:17:26;13.67;81.63
72320;SHT30;60269;52.502;16.732;2023-05-24T15:20:58;13.63;81.80
72320;SHT30;60269;52.502;16.732;2023-05-24T15:24:30;13.76;81.94
72320;SHT30;60269;52.502;16.732;2023-05-24T15:28:02;13.69;81.62
72320;SHT30;60269;52.502;16.732;2023-05-24T15:31:34;13.53;82.23
72320;SHT30;60269;52.502;16.732;2023-05-24T15:35:07;13.59;81.87
72320;SHT30;60269;52.502;16.732;2023-05-24T15:38:39;13.63;81.43
72320;SHT30;60269;52.502;16.732;2023-05-24T15:42:13;13.44;82.63
72320;SHT30;60269;52.502;16.732;2023-05-24T15:45:46;13.22;83.21
72320;SHT30;60269;52.502;16.732;2023-05-24T15:49:20;13.08;83.58
72320;SHT30;60269;52.502;16.732;2023-05-24T15:52:52;13.08;83.82
72320;SHT30;60269;52.502;16.732;2023-05-24T15:56:24;13.19;83.50
72320;SHT30;60269;52.502;16.732;2023-05-24T15:59:56;13.24;83.50
72320;SHT30;60269;52.502;16.732;2023-05-24T16:03:32;13.34;83.30
72320;SHT30;60269;52.502;16.732;2023-05-24T16:07:09;13.61;82.52
72320;SHT30;60269;52.502;16.732;2023-05-24T16:10:41;13.69;82.39
72320;SHT30;60269;52.502;16.732;2023-05-24T16:14:15;13.87;81.75
72320;SHT30;60269;52.502;16.732;2023-05-24T16:17:47;13.79;82.00
72320;SHT30;60269;52.502;16.732;2023-05-24T16:21:20;13.84;81.76
72320;SHT30;60269;52.502;16.732;2023-05-24T16:24:52;13.89;81.63
72320;SHT30;60269;52.502;16.732;2023-05-24T16:28:25;13.93;81.22
72320;SHT30;60269;52.502;16.732;2023-05-24T16:31:57;13.82;81.44
72320;SHT30;60269;52.502;16.732;2023-05-24T16:35:29;13.65;82.39
72320;SHT30;60269;52.502;16.732;2023-05-24T16:39:02;13.72;82.30
72320;SHT30;60269;52.502;16.732;2023-05-24T16:42:34;13.66;82.59
72320;SHT30;60269;52.502;16.732;2023-05-24T16:46:06;13.46;83.27
72320;SHT30;60269;52.502;16.732;2023-05-24T16:49:41;13.21;84.24
72320;SHT30;60269;52.502;16.732;2023-05-24T16:53:13;13.36;84.35
72320;SHT30;60269;52.502;16.732;2023-05-24T16:56:45;13.39;83.99
72320;SHT30;60269;52.502;16.732;2023-05-24T17:00:19;13.31;84.22
72320;SHT30;60269;52.502;16.732;2023-05-24T17:03:51;13.34;84.66
72320;SHT30;60269;52.502;16.732;2023-05-24T17:07:24;13.07;85.51
72320;SHT30;60269;52.502;16.732;2023-05-24T17:10:56;12.95;85.74
72320;SHT30;60269;52.502;16.732;2023-05-24T17:14:28;12.87;86.35
72320;SHT30;60269;52.502;16.732;2023-05-24T17:18:00;12.88;86.62
72320;SHT30;60269;52.502;16.732;2023-05-24T17:21:33;12.73;86.94
72320;SHT30;60269;52.502;16.732;2023-05-24T17:25:05;12.76;87.24
72320;SHT30;60269;52.502;16.732;2023-05-24T17:28:38;12.70;87.44
72320;SHT30;60269;52.502;16.732;2023-05-24T17:32:10;12.74;87.21
72320;SHT30;60269;52.502;16.732;2023-05-24T17:35:42;12.53;88.07
72320;SHT30;60269;52.502;16.732;2023-05-24T17:39:14;12.50;88.27
72320;SHT30;60269;52.502;16.732;2023-05-24T17:42:51;12.49;88.17
72320;SHT30;60269;52.502;16.732;2023-05-24T17:46:22;12.57;88.02
72320;SHT30;60269;52.502;16.732;2023-05-24T17:49:55;12.45;88.41
72320;SHT30;60269;52.502;16.732;2023-05-24T17:53:27;12.49;88.23
72320;SHT30;60269;52.502;16.732;2023-05-24T17:57:03;12.55;88.36
72320;SHT30;60269;52.502;16.732;2023-05-24T18:00:37;12.46;88.64
72320;SHT30;60269;52.502;16.732;2023-05-24T18:04:09;12.49;88.66
72320;SHT30;60269;52.502;16.732;2023-05-24T18:07:44;12.39;89.02
72320;SHT30;60269;52.502;16.732;2023-05-24T18:11:22;12.37;88.98
72320;SHT30;60269;52.502;16.732;2023-05-24T18:14:55;12.46;88.83
72320;SHT30;60269;52.502;16.732;2023-05-24T18:18:28;12.42;88.66
72320;SHT30;60269;52.502;16.732;2023-05-24T18:22:01;12.40;88.74
72320;SHT30;60269;52.502;16.732;2023-05-24T18:25:33;12.39;89.01
72320;SHT30;60269;52.502;16.732;2023-05-24T18:29:08;12.39;89.05
72320;SHT30;60269;52.502;16.732;2023-05-24T18:32:40;12.35;89.17
72320;SHT30;60269;52.502;16.732;2023-05-24T18:36:32;12.30;89.45
72320;SHT30;60269;52.502;16.732;2023-05-24T18:40:06;12.29;89.65
72320;SHT30;60269;52.502;16.732;2023-05-24T18:43:38;12.29;89.75
72320;SHT30;60269;52.502;16.732;2023-05-24T18:47:11;12.25;90.23
72320;SHT30;60269;52.502;16.732;2023-05-24T18:50:42;12.24;90.33
72320;SHT30;60269;52.502;16.732;2023-05-24T18:54:15;12.25;90.31
72320;SHT30;60269;52.502;16.732;2023-05-24T18:57:47;12.18;90.80
72320;SHT30;60269;52.502;16.732;2023-05-24T19:01:19;12.12;90.82
72320;SHT30;60269;52.502;16.732;2023-05-24T19:04:51;12.17;90.68
72320;SHT30;60269;52.502;16.732;2023-05-24T19:08:23;12.17;90.69
72320;SHT30;60269;52.502;16.732;2023-05-24T19:11:55;12.12;91.02
72320;SHT30;60269;52.502;16.732;2023-05-24T19:15:29;12.05;91.38
72320;SHT30;60269;52.502;16.732;2023-05-24T19:19:02;12.08;91.42
72320;SHT30;60269;52.502;16.732;2023-05-24T19:22:34;11.99;91.78
72320;SHT30;60269;52.502;16.732;2023-05-24T19:26:06;12.02;91.77
72320;SHT30;60269;52.502;16.732;2023-05-24T19:29:38;12.06;91.75
72320;SHT30;60269;52.502;16.732;2023-05-24T19:33:10;12.05;91.85
72320;SHT30;60269;52.502;16.732;2023-05-24T19:36:42;12.02;91.95
72320;SHT30;60269;52.502;16.732;2023-05-24T19:40:15;11.99;92.04
72320;SHT30;60269;52.502;16.732;2023-05-24T19:43:47;12.06;91.88
72320;SHT30;60269;52.502;16.732;2023-05-24T19:47:19;12.05;91.82
72320;SHT30;60269;52.502;16.732;2023-05-24T19:50:51;12.04;91.85
72320;SHT30;60269;52.502;16.732;2023-05-24T19:54:23;11.97;92.07
72320;SHT30;60269;52.502;16.732;2023-05-24T19:57:55;12.02;92.22
72320;SHT30;60269;52.502;16.732;2023-05-24T20:01:27;11.92;92.71
72320;SHT30;60269;52.502;16.732;2023-05-24T20:04:59;11.81;93.53
72320;SHT30;60269;52.502;16.732;2023-05-24T20:08:31;11.73;93.73
72320;SHT30;60269;52.502;16.732;2023-05-24T20:12:04;11.70;93.95
72320;SHT30;60269;52.502;16.732;2023-05-24T20:15:38;11.77;93.85
72320;SHT30;60269;52.502;16.732;2023-05-24T20:19:10;11.77;93.80
72320;SHT30;60269;52.502;16.732;2023-05-24T20:22:42;11.74;93.60
72320;SHT30;60269;52.502;16.732;2023-05-24T20:26:14;11.78;93.37
72320;SHT30;60269;52.502;16.732;2023-05-24T20:29:46;11.80;93.24
72320;SHT30;60269;52.502;16.732;2023-05-24T20:33:18;11.82;92.93
72320;SHT30;60269;52.502;16.732;2023-05-24T20:36:50;11.85;92.91
72320;SHT30;60269;52.502;16.732;2023-05-24T20:40:22;11.81;93.17
72320;SHT30;60269;52.502;16.732;2023-05-24T20:43:55;11.80;93.14
72320;SHT30;60269;52.502;16.732;2023-05-24T20:47:28;11.78;93.17
72320;SHT30;60269;52.502;16.732;2023-05-24T20:51:01;11.74;93.53
72320;SHT30;60269;52.502;16.732;2023-05-24T20:54:32;11.77;93.71
72320;SHT30;60269;52.502;16.732;2023-05-24T20:58:05;11.71;93.78
72320;SHT30;60269;52.502;16.732;2023-05-24T21:01:37;11.70;93.83
72320;SHT30;60269;52.502;16.732;2023-05-24T21:05:08;11.70;94.12
72320;SHT30;60269;52.502;16.732;2023-05-24T21:08:41;11.68;94.12
72320;SHT30;60269;52.502;16.732;2023-05-24T21:12:14;11.68;94.11
72320;SHT30;60269;52.502;16.732;2023-05-24T21:15:46;11.70;94.33
72320;SHT30;60269;52.502;16.732;2023-05-24T21:19:18;11.67;94.47
72320;SHT30;60269;52.502;16.732;2023-05-24T21:22:50;11.63;94.60
72320;SHT30;60269;52.502;16.732;2023-05-24T21:26:22;11.68;94.31
72320;SHT30;60269;52.502;16.732;2023-05-24T21:29:54;11.78;93.99
72320;SHT30;60269;52.502;16.732;2023-05-24T21:33:26;11.74;94.00
72320;SHT30;60269;52.502;16.732;2023-05-24T21:36:58;11.74;94.14
72320;SHT30;60269;52.502;16.732;2023-05-24T21:40:31;11.74;94.04
72320;SHT30;60269;52.502;16.732;2023-05-24T21:44:03;11.82;93.95
72320;SHT30;60269;52.502;16.732;2023-05-24T21:47:37;11.82;93.86
72320;SHT30;60269;52.502;16.732;2023-05-24T21:51:09;11.75;94.05
72320;SHT30;60269;52.502;16.732;2023-05-24T21:54:41;11.71;94.35
72320;SHT30;60269;52.502;16.732;2023-05-24T21:58:13;11.66;94.50
72320;SHT30;60269;52.502;16.732;2023-05-24T22:01:45;11.63;94.60
72320;SHT30;60269;52.502;16.732;2023-05-24T22:05:17;11.61;94.76
72320;SHT30;60269;52.502;16.732;2023-05-24T22:08:49;11.64;94.66
72320;SHT30;60269;52.502;16.732;2023-05-24T22:12:21;11.63;94.72
72320;SHT30;60269;52.502;16.732;2023-05-24T22:15:55;11.70;94.68
72320;SHT30;60269;52.502;16.732;2023-05-24T22:19:28;11.66;94.77
72320;SHT30;60269;52.502;16.732;2023-05-24T22:23:12;11.64;94.85
72320;SHT30;60269;52.502;16.732;2023-05-24T22:26:44;11.60;95.14
72320;SHT30;60269;52.502;16.732;2023-05-24T22:30:17;11.61;95.05